96OH weather

CLOSED Ohio Department of Transportation Dist 6 Heliport
Delaware, Ohio, United States

Public forecast

Using degrees Fahrenheit for public forecast. Weather courtesy of forecast.io.

Closest aviation weather report (METAR) to Ohio Department of Transportation Dist 6 Heliport

Closest report is Delaware Municipal Airport, 3.0 nm (5.6 km) WSW. Retrieved 2020/02/24 01:35 UTC (21 minutes ago):

KDLZ 240135Z AUTO 19004KT 10SM CLR 03/M02 A3004 RMK AO2

Closest aviation forecast (TAF) to Ohio Department of Transportation Dist 6 Heliport

Closest forecast is John Glenn Columbus International Airport, 19.3 nm (35.8 km) SSE. Retrieved 2020-02-24 00:39 UTC (1 hour ago):

TAF KCMH 232336Z 2400/2424 19006KT P6SM SCT070 TEMPO 2400/2401 BKN070 FM241200 18004KT P6SM BKN045 FM241400 18006KT P6SM VCSH OVC021 FM241800 16007KT 4SM -RA BR OVC006 FM242100 15008KT P6SM VCSH OVC012